createdAt,value
2016-12-29T00:00:17.958Z,-6.81
2016-12-29T00:01:17.926Z,-6.69
2016-12-29T00:02:17.908Z,-6.66
2016-12-29T00:03:17.904Z,-6.64
2016-12-29T00:04:17.860Z,-6.6
2016-12-29T00:05:17.852Z,-6.6
2016-12-29T00:06:17.826Z,-6.77
2016-12-29T00:07:17.799Z,-6.71
2016-12-29T00:08:17.780Z,-6.64
2016-12-29T00:09:17.756Z,-6.59
2016-12-29T00:10:17.741Z,-6.66
2016-12-29T00:11:17.732Z,-6.71
2016-12-29T00:12:17.704Z,-6.75
2016-12-29T00:13:17.673Z,-6.79
2016-12-29T00:14:17.657Z,-6.74
2016-12-29T00:15:17.638Z,-6.78
2016-12-29T00:16:17.615Z,-6.77
2016-12-29T00:17:17.598Z,-6.87
2016-12-29T00:18:17.577Z,-6.96
2016-12-29T00:19:17.554Z,-6.98
2016-12-29T00:20:17.531Z,-6.89
2016-12-29T00:21:17.512Z,-6.96
2016-12-29T00:22:17.489Z,-7.02
2016-12-29T00:23:17.464Z,-7.08
2016-12-29T00:24:17.446Z,-6.93
2016-12-29T00:25:17.434Z,-6.9
2016-12-29T00:26:17.407Z,-6.69
2016-12-29T00:27:17.388Z,-6.77
2016-12-29T00:28:17.366Z,-6.64
2016-12-29T00:29:17.342Z,-6.77
2016-12-29T00:30:17.326Z,-6.77
2016-12-29T00:31:17.307Z,-6.84
2016-12-29T00:32:17.274Z,-6.82
2016-12-29T00:33:17.260Z,-6.84
2016-12-29T00:34:17.235Z,-6.89
2016-12-29T00:35:17.216Z,-6.87
2016-12-29T00:36:17.189Z,-6.74
2016-12-29T00:37:17.179Z,-6.82
2016-12-29T00:38:17.154Z,-6.71
2016-12-29T00:39:17.133Z,-6.77
2016-12-29T00:40:17.117Z,-6.74
2016-12-29T00:41:17.092Z,-6.79
2016-12-29T00:42:17.073Z,-6.72
2016-12-29T00:43:17.050Z,-6.77
2016-12-29T00:44:17.037Z,-6.72
2016-12-29T00:45:17.011Z,-6.64
2016-12-29T00:46:16.991Z,-6.61
2016-12-29T00:47:16.967Z,-6.81
2016-12-29T00:48:16.942Z,-6.75
2016-12-29T00:49:16.928Z,-6.89
2016-12-29T00:50:16.894Z,-6.9
2016-12-29T00:51:16.875Z,-6.96
2016-12-29T00:52:16.864Z,-7
2016-12-29T00:53:16.840Z,-6.81
2016-12-29T00:54:16.819Z,-6.92
2016-12-29T00:55:16.790Z,-6.87
2016-12-29T00:56:17.175Z,-6.72
2016-12-29T00:57:16.763Z,-6.59
2016-12-29T00:58:16.736Z,-6.55
2016-12-29T00:59:16.716Z,-6.6
2016-12-29T01:00:16.694Z,-6.59
2016-12-29T01:01:16.662Z,-6.52
2016-12-29T01:02:16.644Z,-6.52
2016-12-29T01:03:16.628Z,-6.35
2016-12-29T01:04:16.607Z,-6.41
2016-12-29T01:05:16.589Z,-6.45
2016-12-29T01:06:16.574Z,-6.52
2016-12-29T01:07:16.541Z,-6.6
2016-12-29T01:08:16.913Z,-6.74
2016-12-29T01:09:16.507Z,-6.71
2016-12-29T01:10:16.491Z,-6.75
2016-12-29T01:11:16.466Z,-6.75
2016-12-29T01:12:16.451Z,-6.71
2016-12-29T01:13:16.427Z,-6.82
2016-12-29T01:14:16.400Z,-6.74
2016-12-29T01:15:16.395Z,-6.72
2016-12-29T01:16:16.352Z,-6.74
2016-12-29T01:17:16.327Z,-6.71
2016-12-29T01:18:16.319Z,-6.78
2016-12-29T01:19:16.295Z,-6.69
2016-12-29T01:20:16.279Z,-6.63
2016-12-29T01:21:16.251Z,-6.77
2016-12-29T01:22:16.231Z,-6.67
2016-12-29T01:23:16.206Z,-6.69
2016-12-29T01:24:16.192Z,-6.59
2016-12-29T01:25:16.161Z,-6.55
2016-12-29T01:26:16.153Z,-6.56
2016-12-29T01:27:16.130Z,-6.55
2016-12-29T01:28:16.112Z,-6.55
2016-12-29T01:29:16.083Z,-6.64
2016-12-29T01:30:16.065Z,-6.67
2016-12-29T01:31:16.035Z,-6.63
2016-12-29T01:32:16.030Z,-6.56
2016-12-29T01:33:16.009Z,-6.48
2016-12-29T01:34:16.019Z,-6.48
2016-12-29T01:35:15.957Z,-6.61
2016-12-29T01:36:15.934Z,-6.42
2016-12-29T01:37:15.909Z,-6.61
2016-12-29T01:38:15.897Z,-6.69
2016-12-29T01:39:15.880Z,-6.78
2016-12-29T01:40:15.844Z,-6.79
2016-12-29T01:41:15.831Z,-6.75
2016-12-29T01:42:15.808Z,-6.63
2016-12-29T01:43:15.791Z,-6.79
2016-12-29T01:44:15.759Z,-6.74
2016-12-29T01:45:15.747Z,-6.81
2016-12-29T01:46:15.725Z,-6.66
2016-12-29T01:47:15.705Z,-6.53
2016-12-29T01:48:15.675Z,-6.56
2016-12-29T01:49:15.658Z,-6.52
2016-12-29T01:50:15.639Z,-6.41
2016-12-29T01:51:15.617Z,-6.26
2016-12-29T01:52:15.597Z,-6.27
2016-12-29T01:53:15.575Z,-6.24
2016-12-29T01:54:15.563Z,-6.2
2016-12-29T01:55:15.542Z,-6.35
2016-12-29T01:56:15.514Z,-6.56
2016-12-29T01:57:15.495Z,-6.69
2016-12-29T01:58:15.482Z,-6.71
2016-12-29T01:59:15.457Z,-6.61
2016-12-29T02:00:15.426Z,-6.61
2016-12-29T02:01:15.414Z,-6.53
2016-12-29T02:02:15.385Z,-6.42
2016-12-29T02:03:15.364Z,-6.53
2016-12-29T02:04:15.334Z,-6.6
2016-12-29T02:05:15.318Z,-6.5
2016-12-29T02:06:15.300Z,-6.6
2016-12-29T02:07:15.274Z,-6.52
2016-12-29T02:08:15.257Z,-6.52
2016-12-29T02:09:15.235Z,-6.5
2016-12-29T02:10:15.213Z,-6.48
2016-12-29T02:11:15.205Z,-6.38
2016-12-29T02:12:15.178Z,-6.32
2016-12-29T02:13:15.155Z,-6.39
2016-12-29T02:14:15.142Z,-6.5
2016-12-29T02:15:15.119Z,-6.34
2016-12-29T02:16:15.100Z,-6.26
2016-12-29T02:17:15.085Z,-6.35
2016-12-29T02:18:15.060Z,-6.29
2016-12-29T02:19:15.033Z,-6.27
2016-12-29T02:20:15.020Z,-6.21
2016-12-29T02:21:14.985Z,-6.42
2016-12-29T02:22:14.967Z,-6.35
2016-12-29T02:23:14.940Z,-6.35
2016-12-29T02:24:14.918Z,-6.42
2016-12-29T02:25:14.901Z,-6.29
2016-12-29T02:26:14.887Z,-6.31
2016-12-29T02:27:14.854Z,-6.34
2016-12-29T02:28:14.844Z,-6.23
2016-12-29T02:29:14.815Z,-6.37
2016-12-29T02:30:14.804Z,-6.27
2016-12-29T02:31:14.771Z,-6.27
2016-12-29T02:32:14.749Z,-6.35
2016-12-29T02:33:14.745Z,-6.24
2016-12-29T02:34:14.711Z,-6.41
2016-12-29T02:35:14.698Z,-6.45
2016-12-29T02:36:14.672Z,-6.32
2016-12-29T02:37:14.692Z,-6.16
2016-12-29T02:38:14.627Z,-6.06
2016-12-29T02:39:14.620Z,-6.08
2016-12-29T02:40:14.592Z,-6.1
2016-12-29T02:41:14.560Z,-6.2
2016-12-29T02:42:14.547Z,-6.26
2016-12-29T02:43:14.530Z,-6.27
2016-12-29T02:44:14.511Z,-6.19
2016-12-29T02:45:14.487Z,-6.23
2016-12-29T02:46:14.478Z,-6.23
2016-12-29T02:47:14.443Z,-6.21
2016-12-29T02:48:14.423Z,-6.26
2016-12-29T02:49:14.415Z,-6.23
2016-12-29T02:50:14.375Z,-6.26
2016-12-29T02:51:14.366Z,-6.29
2016-12-29T02:52:14.349Z,-6.27
2016-12-29T02:53:14.348Z,-6.27
2016-12-29T02:54:14.302Z,-6.38
2016-12-29T02:55:14.272Z,-6.41
2016-12-29T02:56:14.262Z,-6.37
2016-12-29T02:57:14.232Z,-6.41
2016-12-29T02:58:14.220Z,-6.31
2016-12-29T02:59:14.201Z,-6.29
2016-12-29T03:00:14.178Z,-6.27
2016-12-29T03:01:14.534Z,-6.26
2016-12-29T03:02:14.123Z,-6.48
2016-12-29T03:03:14.103Z,-6.41
2016-12-29T03:04:14.083Z,-6.48
2016-12-29T03:05:14.070Z,-6.48
2016-12-29T03:06:14.046Z,-6.63
2016-12-29T03:07:14.034Z,-6.53
2016-12-29T03:08:14.008Z,-6.52
2016-12-29T03:09:13.982Z,-6.6
2016-12-29T03:10:13.968Z,-6.63
2016-12-29T03:11:13.940Z,-6.52
2016-12-29T03:12:13.928Z,-6.5
2016-12-29T03:13:13.898Z,-6.55
2016-12-29T03:14:13.876Z,-6.44
2016-12-29T03:15:13.858Z,-6.44
2016-12-29T03:16:13.839Z,-6.48
2016-12-29T03:17:13.818Z,-6.44
2016-12-29T03:18:13.787Z,-6.45
2016-12-29T03:19:13.804Z,-6.45
2016-12-29T03:20:13.752Z,-6.45
2016-12-29T03:21:13.729Z,-6.44
2016-12-29T03:22:13.719Z,-6.35
2016-12-29T03:23:13.686Z,-6.45
2016-12-29T03:24:13.676Z,-6.27
2016-12-29T03:25:13.649Z,-6.32
2016-12-29T03:26:13.637Z,-6.2
2016-12-29T03:27:13.611Z,-6.39
2016-12-29T03:28:13.583Z,-6.42
2016-12-29T03:29:13.578Z,-6.34
2016-12-29T03:30:13.562Z,-6.38
2016-12-29T03:31:13.531Z,-6.37
2016-12-29T03:32:13.515Z,-6.39
2016-12-29T03:33:13.498Z,-6.45
2016-12-29T03:34:13.457Z,-6.56
2016-12-29T03:35:13.454Z,-6.52
2016-12-29T03:36:13.427Z,-6.53
2016-12-29T03:37:13.396Z,-6.63
2016-12-29T03:38:13.387Z,-6.66
2016-12-29T03:39:13.369Z,-6.52
2016-12-29T03:40:13.365Z,-6.39
2016-12-29T03:41:13.320Z,-6.52
2016-12-29T03:42:13.293Z,-6.44
2016-12-29T03:43:13.286Z,-6.47
2016-12-29T03:44:13.267Z,-6.63
2016-12-29T03:45:13.230Z,-6.59
2016-12-29T03:46:13.222Z,-6.72
2016-12-29T03:47:13.202Z,-6.77
2016-12-29T03:48:13.178Z,-6.61
2016-12-29T03:49:13.157Z,-6.6
2016-12-29T03:50:13.139Z,-6.66
2016-12-29T03:51:13.107Z,-6.56
2016-12-29T03:52:13.087Z,-6.48
2016-12-29T03:53:13.065Z,-6.55
2016-12-29T03:54:13.054Z,-6.52
2016-12-29T03:55:13.034Z,-6.59
2016-12-29T03:56:13.009Z,-6.52
2016-12-29T03:57:13.030Z,-6.47
2016-12-29T03:58:12.970Z,-6.45
2016-12-29T03:59:12.941Z,-6.48
2016-12-29T04:00:12.917Z,-6.45
2016-12-29T04:01:12.909Z,-6.63
2016-12-29T04:02:12.887Z,-6.72
2016-12-29T04:03:12.864Z,-6.55
2016-12-29T04:04:12.843Z,-6.38
2016-12-29T04:05:12.827Z,-6.37
2016-12-29T04:06:12.800Z,-6.53
2016-12-29T04:07:12.794Z,-6.47
2016-12-29T04:08:12.766Z,-6.56
2016-12-29T04:09:12.745Z,-6.59
2016-12-29T04:10:12.725Z,-6.45
2016-12-29T04:11:12.705Z,-6.48
2016-12-29T04:12:12.679Z,-6.47
2016-12-29T04:13:12.697Z,-6.56
2016-12-29T04:14:12.638Z,-6.38
2016-12-29T04:15:13.011Z,-6.41
2016-12-29T04:16:12.592Z,-6.37
2016-12-29T04:17:12.569Z,-6.35
2016-12-29T04:18:12.550Z,-6.35
2016-12-29T04:19:12.530Z,-6.27
2016-12-29T04:20:12.509Z,-6.38
2016-12-29T04:21:12.500Z,-6.39
2016-12-29T04:22:12.473Z,-6.27
2016-12-29T04:23:12.439Z,-6.42
2016-12-29T04:24:12.434Z,-6.34
2016-12-29T04:25:12.408Z,-6.45
2016-12-29T04:26:12.422Z,-6.31
2016-12-29T04:27:12.365Z,-6.29
2016-12-29T04:28:12.344Z,-6.41
2016-12-29T04:29:12.315Z,-6.44
2016-12-29T04:30:12.302Z,-6.48
2016-12-29T04:31:12.284Z,-6.38
2016-12-29T04:32:12.254Z,-6.45
2016-12-29T04:33:12.276Z,-6.34
2016-12-29T04:34:12.224Z,-6.39
2016-12-29T04:35:12.199Z,-6.42
2016-12-29T04:36:12.174Z,-6.31
2016-12-29T04:37:12.159Z,-6.38
2016-12-29T04:38:12.143Z,-6.56
2016-12-29T04:39:12.116Z,-6.55
2016-12-29T04:40:12.129Z,-6.44
2016-12-29T04:41:12.078Z,-6.5
2016-12-29T04:42:12.057Z,-6.6
2016-12-29T04:43:12.036Z,-6.37
2016-12-29T04:44:12.016Z,-6.55
2016-12-29T04:45:11.991Z,-6.52
2016-12-29T04:46:11.968Z,-6.44
2016-12-29T04:47:11.963Z,-6.48
2016-12-29T04:48:11.928Z,-6.56
2016-12-29T04:49:11.921Z,-6.53
2016-12-29T04:50:11.893Z,-6.53
2016-12-29T04:51:11.873Z,-6.52
2016-12-29T04:52:11.860Z,-6.52
2016-12-29T04:53:11.828Z,-6.5
2016-12-29T04:54:11.808Z,-6.52
2016-12-29T04:55:11.824Z,-6.38
2016-12-29T04:56:11.771Z,-6.47
2016-12-29T04:57:11.749Z,-6.45
2016-12-29T04:58:11.920Z,-6.61
2016-12-29T04:59:11.706Z,-6.53
2016-12-29T05:00:11.693Z,-6.63
2016-12-29T05:01:11.659Z,-6.56
2016-12-29T05:02:11.649Z,-6.47
2016-12-29T05:03:11.623Z,-6.55
2016-12-29T05:04:11.603Z,-6.63
2016-12-29T05:05:11.585Z,-6.75
2016-12-29T05:06:11.562Z,-6.75
2016-12-29T05:07:11.535Z,-6.59
2016-12-29T05:08:11.519Z,-6.6
2016-12-29T05:09:11.501Z,-6.53
2016-12-29T05:10:11.486Z,-6.56
2016-12-29T05:11:11.456Z,-6.55
2016-12-29T05:12:11.437Z,-6.47
2016-12-29T05:13:11.406Z,-6.52
2016-12-29T05:14:11.395Z,-6.56
2016-12-29T05:15:11.381Z,-6.48
2016-12-29T05:16:11.348Z,-6.52
2016-12-29T05:17:11.326Z,-6.48
2016-12-29T05:18:11.311Z,-6.63
2016-12-29T05:19:11.306Z,-6.56
2016-12-29T05:20:11.276Z,-6.53
2016-12-29T05:21:11.259Z,-6.6
2016-12-29T05:22:11.223Z,-6.63
2016-12-29T05:23:11.205Z,-6.72
2016-12-29T05:24:11.190Z,-6.67
2016-12-29T05:25:11.175Z,-6.6
2016-12-29T05:26:11.151Z,-6.56
2016-12-29T05:27:11.132Z,-6.63
2016-12-29T05:28:11.099Z,-6.55
2016-12-29T05:29:11.077Z,-6.59
2016-12-29T05:30:11.058Z,-6.48
2016-12-29T05:31:11.043Z,-6.55
2016-12-29T05:32:11.017Z,-6.5
2016-12-29T05:33:10.991Z,-6.52
2016-12-29T05:34:11.355Z,-6.45
2016-12-29T05:35:10.952Z,-6.56
2016-12-29T05:36:10.926Z,-6.66
2016-12-29T05:37:10.906Z,-6.69
2016-12-29T05:38:10.890Z,-6.55
2016-12-29T05:39:10.896Z,-6.64
2016-12-29T05:40:10.851Z,-6.79
2016-12-29T05:41:10.831Z,-6.72
2016-12-29T05:42:10.801Z,-6.78
2016-12-29T05:43:10.790Z,-6.66
2016-12-29T05:44:10.771Z,-6.74
2016-12-29T05:45:10.743Z,-6.89
2016-12-29T05:46:11.120Z,-6.95
2016-12-29T05:47:10.711Z,-6.87
2016-12-29T05:48:10.675Z,-6.92
2016-12-29T05:49:10.662Z,-6.72
2016-12-29T05:50:10.646Z,-6.77
2016-12-29T05:51:10.622Z,-6.79
2016-12-29T05:52:10.599Z,-6.77
2016-12-29T05:53:10.580Z,-6.55
2016-12-29T05:54:10.572Z,-6.48
2016-12-29T05:55:10.535Z,-6.48
2016-12-29T05:56:10.514Z,-6.56
2016-12-29T05:57:10.496Z,-6.64
2016-12-29T05:58:10.465Z,-6.82
2016-12-29T05:59:10.476Z,-6.87
2016-12-29T06:00:10.427Z,-6.85
2016-12-29T06:01:10.412Z,-6.84
2016-12-29T06:02:10.393Z,-6.72
2016-12-29T06:03:10.365Z,-6.78
2016-12-29T06:04:10.354Z,-6.89
2016-12-29T06:05:10.320Z,-6.82
2016-12-29T06:06:10.304Z,-6.84
2016-12-29T06:07:10.286Z,-6.74
2016-12-29T06:08:10.265Z,-6.77
2016-12-29T06:09:10.241Z,-6.78
2016-12-29T06:10:10.223Z,-6.74
2016-12-29T06:11:10.206Z,-6.82
2016-12-29T06:12:10.193Z,-6.77
2016-12-29T06:13:10.168Z,-6.87
2016-12-29T06:14:10.142Z,-6.93
2016-12-29T06:15:10.126Z,-6.84
2016-12-29T06:16:10.105Z,-6.72
2016-12-29T06:17:10.084Z,-6.85
2016-12-29T06:18:10.050Z,-6.82
2016-12-29T06:19:10.039Z,-6.82
2016-12-29T06:20:10.016Z,-6.95
2016-12-29T06:21:10.015Z,-6.82
2016-12-29T06:22:09.965Z,-6.87
2016-12-29T06:23:09.955Z,-6.82
2016-12-29T06:24:09.943Z,-6.93
2016-12-29T06:25:09.911Z,-7.08
2016-12-29T06:26:09.894Z,-6.93
2016-12-29T06:27:09.875Z,-6.82
2016-12-29T06:28:09.847Z,-6.84
2016-12-29T06:29:09.832Z,-6.95
2016-12-29T06:30:09.805Z,-6.82
2016-12-29T06:31:09.778Z,-6.96
2016-12-29T06:32:09.762Z,-6.9
2016-12-29T06:33:09.737Z,-6.72
2016-12-29T06:34:09.721Z,-6.96
2016-12-29T06:35:09.736Z,-6.96
2016-12-29T06:36:09.672Z,-6.99
2016-12-29T06:37:09.659Z,-6.85
2016-12-29T06:38:09.642Z,-7.08
2016-12-29T06:39:09.617Z,-6.98
2016-12-29T06:40:09.599Z,-6.99
2016-12-29T06:41:09.584Z,-6.95
2016-12-29T06:42:09.554Z,-6.93
2016-12-29T06:43:09.527Z,-7
2016-12-29T06:44:09.508Z,-7.13
2016-12-29T06:45:09.494Z,-7.14
2016-12-29T06:46:09.465Z,-7.11
2016-12-29T06:47:09.450Z,-6.98
2016-12-29T06:48:09.419Z,-7.11
2016-12-29T06:49:09.410Z,-7.14
2016-12-29T06:50:09.394Z,-7.16
2016-12-29T06:51:09.367Z,-7.14
2016-12-29T06:52:09.347Z,-7.18
2016-12-29T06:53:09.329Z,-7.11
2016-12-29T06:54:09.301Z,-7.1
2016-12-29T06:55:09.285Z,-7.08
2016-12-29T06:56:09.268Z,-7.16
2016-12-29T06:57:09.248Z,-7.2
2016-12-29T06:58:09.225Z,-7.13
2016-12-29T06:59:09.195Z,-7.14
2016-12-29T07:00:09.179Z,-7.24
2016-12-29T07:01:09.163Z,-7.08
2016-12-29T07:02:09.140Z,-7.18
2016-12-29T07:03:09.114Z,-7.28
2016-12-29T07:04:09.099Z,-7.37
2016-12-29T07:05:09.073Z,-7.32
2016-12-29T07:06:09.048Z,-7.34
2016-12-29T07:07:09.022Z,-7.35
2016-12-29T07:08:09.013Z,-7.32
2016-12-29T07:09:08.994Z,-7.18
2016-12-29T07:10:08.970Z,-7.13
2016-12-29T07:11:08.951Z,-7.18
2016-12-29T07:12:08.934Z,-7.31
2016-12-29T07:13:08.904Z,-7.18
2016-12-29T07:14:08.876Z,-7.14
2016-12-29T07:15:08.862Z,-6.93
2016-12-29T07:16:08.845Z,-6.87
2016-12-29T07:17:08.814Z,-7
2016-12-29T07:18:08.801Z,-6.77
2016-12-29T07:19:08.777Z,-6.81
2016-12-29T07:20:08.760Z,-6.79
2016-12-29T07:21:08.727Z,-6.47
2016-12-29T07:22:08.703Z,-6.6
2016-12-29T07:23:08.694Z,-6.41
2016-12-29T07:24:08.669Z,-6.34
2016-12-29T07:25:08.652Z,-6.42
2016-12-29T07:26:08.624Z,-6.09
2016-12-29T07:27:08.612Z,-6.23
2016-12-29T07:28:08.586Z,-6.09
2016-12-29T07:29:08.562Z,-5.92
2016-12-29T07:30:08.537Z,-6.24
2016-12-29T07:31:23.435Z,-6.17
2016-12-29T07:32:08.495Z,-6.06
2016-12-29T07:33:08.485Z,-6.17
2016-12-29T07:34:08.456Z,-5.96
2016-12-29T07:35:08.441Z,-6.09
2016-12-29T07:36:08.427Z,-6.09
2016-12-29T07:37:08.401Z,-5.87
2016-12-29T07:38:08.377Z,-5.63
2016-12-29T07:39:08.364Z,-5.67
2016-12-29T07:40:08.330Z,-5.33
2016-12-29T07:41:08.320Z,-5.09
2016-12-29T07:42:08.679Z,-5.2
2016-12-29T07:43:08.277Z,-5.51
2016-12-29T07:44:08.254Z,-5.49
2016-12-29T07:45:08.239Z,-5.51
2016-12-29T07:46:08.218Z,-5.7
2016-12-29T07:47:08.199Z,-5.62
2016-12-29T07:48:08.178Z,-5.78
2016-12-29T07:49:08.150Z,-5.45
2016-12-29T07:50:08.144Z,-5.11
2016-12-29T07:51:08.122Z,-4.51
2016-12-29T07:52:08.107Z,-4.09
2016-12-29T07:53:08.078Z,-4.37
2016-12-29T07:54:08.056Z,-4.79
2016-12-29T07:55:08.038Z,-5.23
2016-12-29T07:56:08.026Z,-5.3
2016-12-29T07:57:08.204Z,-5.38
2016-12-29T07:58:08.181Z,-4.97
2016-12-29T07:59:08.166Z,-4.97
2016-12-29T08:00:07.940Z,-4.65
2016-12-29T08:01:07.919Z,-4.16
2016-12-29T08:02:07.903Z,-3.98
2016-12-29T08:03:07.889Z,-4.1
2016-12-29T08:04:07.873Z,-4.28
2016-12-29T08:05:07.842Z,-4.22
2016-12-29T08:06:07.817Z,-3.97
2016-12-29T08:07:07.811Z,-4.02
2016-12-29T08:08:07.780Z,-4.4
2016-12-29T08:09:07.767Z,-4.49
2016-12-29T08:10:07.760Z,-4.59
2016-12-29T08:11:07.729Z,-4.56
2016-12-29T08:12:07.704Z,-4.7
2016-12-29T08:13:07.693Z,-4.44
2016-12-29T08:14:08.055Z,-4.36
2016-12-29T08:15:07.660Z,-4.2
2016-12-29T08:16:07.639Z,-3.99
2016-12-29T08:17:07.618Z,-4.07
2016-12-29T08:18:07.610Z,-4.02
2016-12-29T08:19:07.591Z,-3.68
2016-12-29T08:20:07.563Z,-4.23
2016-12-29T08:21:07.545Z,-4.4
2016-12-29T08:22:07.516Z,-4.44
2016-12-29T08:23:07.511Z,-3.64
2016-12-29T08:24:07.498Z,-3.25
2016-12-29T08:25:07.673Z,-2.71
2016-12-29T08:26:07.452Z,-3.34
2016-12-29T08:27:07.634Z,-3.19
2016-12-29T08:28:07.436Z,-2.87
2016-12-29T08:29:07.396Z,-2.8
2016-12-29T08:30:07.379Z,-2.5
2016-12-29T08:31:07.369Z,-2.24
2016-12-29T08:32:07.340Z,-3.13
2016-12-29T08:33:07.334Z,-3.62
2016-12-29T08:34:07.304Z,-3.3
2016-12-29T08:35:07.287Z,-3.52
2016-12-29T08:36:07.268Z,-3.88
2016-12-29T08:37:07.260Z,-4.1
2016-12-29T08:38:07.238Z,-3.8
2016-12-29T08:39:07.222Z,-3.41
2016-12-29T08:40:07.207Z,-2.82
2016-12-29T08:41:07.182Z,-2.21
2016-12-29T08:42:07.160Z,-1.89
2016-12-29T08:43:07.156Z,-1.85
2016-12-29T08:44:07.127Z,-1.68
2016-12-29T08:45:07.117Z,-2.01
2016-12-29T08:46:07.091Z,-2.25
2016-12-29T08:47:07.082Z,-2.47
2016-12-29T08:48:07.066Z,-2.9
2016-12-29T08:49:07.044Z,-2.77
2016-12-29T08:50:07.018Z,-2.41
2016-12-29T08:51:07.013Z,-2.06
2016-12-29T08:52:06.998Z,-1.39
2016-12-29T08:53:06.965Z,-1.47
2016-12-29T08:54:21.864Z,-1.23
2016-12-29T08:55:06.962Z,-1.07
2016-12-29T08:56:07.131Z,-1
2016-12-29T08:57:06.901Z,-0.7
2016-12-29T08:58:06.889Z,-0.89
2016-12-29T08:59:06.868Z,-0.85
2016-12-29T09:00:06.864Z,-1.25
2016-12-29T09:01:06.875Z,-0.95
2016-12-29T09:02:06.818Z,-0.9
2016-12-29T09:03:06.803Z,-0.89
2016-12-29T09:04:06.783Z,-0.7
2016-12-29T09:05:06.793Z,-0.76
2016-12-29T09:06:06.767Z,-1.1
2016-12-29T09:07:06.748Z,-1.13
2016-12-29T09:08:06.718Z,-1.41
2016-12-29T09:09:06.705Z,-1.21
2016-12-29T09:10:06.700Z,-0.93
2016-12-29T09:11:06.676Z,-1.18
2016-12-29T09:12:06.654Z,-1.21
2016-12-29T09:13:06.645Z,-1.18
2016-12-29T09:14:06.621Z,-1.05
2016-12-29T09:15:06.605Z,-0.9
2016-12-29T09:16:06.596Z,-0.47
2016-12-29T09:17:06.970Z,0.1
2016-12-29T09:18:06.556Z,0.26
2016-12-29T09:19:06.538Z,0.2
2016-12-29T09:20:06.554Z,0.22
2016-12-29T09:21:06.502Z,0.02
2016-12-29T09:22:06.500Z,0.13
2016-12-29T09:23:06.487Z,0.57
2016-12-29T09:24:06.470Z,0.44
2016-12-29T09:25:06.653Z,0.08
2016-12-29T09:26:06.434Z,0.2
2016-12-29T09:27:06.413Z,0.12
2016-12-29T09:28:06.400Z,0.01
2016-12-29T09:29:06.382Z,-0.3
2016-12-29T09:30:06.369Z,-0.67
2016-12-29T09:31:06.343Z,-0.44
2016-12-29T09:32:06.340Z,0.1
2016-12-29T09:33:06.326Z,-0.06
2016-12-29T09:34:06.302Z,-0.42
2016-12-29T09:35:06.294Z,-0.8
2016-12-29T09:36:06.279Z,-1.21
2016-12-29T09:37:06.257Z,-0.68
2016-12-29T09:38:06.235Z,0.17
2016-12-29T09:39:06.225Z,0.52
2016-12-29T09:40:06.197Z,-0.71
2016-12-29T09:41:06.185Z,-1.72
2016-12-29T09:42:06.567Z,-1.46
2016-12-29T09:43:06.154Z,-0.97
2016-12-29T09:44:06.149Z,-0.55
2016-12-29T09:45:06.115Z,-0.12
2016-12-29T09:46:06.110Z,-0.2
2016-12-29T09:47:06.483Z,-0.08
2016-12-29T09:48:06.099Z,0.01
2016-12-29T09:49:06.064Z,0.56
2016-12-29T09:50:06.054Z,1.02
2016-12-29T09:51:06.034Z,1.39
2016-12-29T09:52:06.004Z,1.57
2016-12-29T09:53:05.997Z,1.14
2016-12-29T09:54:06.177Z,0.9
2016-12-29T09:55:05.959Z,0.8
2016-12-29T09:56:05.956Z,0.9
2016-12-29T09:57:05.935Z,0.86
2016-12-29T09:58:05.924Z,0.49
2016-12-29T09:59:06.289Z,0.82
2016-12-29T10:00:05.880Z,0.63
2016-12-29T10:01:05.871Z,1
2016-12-29T10:02:05.859Z,0.93
2016-12-29T10:03:05.837Z,1.21
2016-12-29T10:04:05.817Z,1.65
2016-12-29T10:05:05.806Z,1.28
2016-12-29T10:06:05.824Z,1.92
2016-12-29T10:07:05.779Z,1.47
2016-12-29T10:08:05.776Z,0.96
2016-12-29T10:09:05.751Z,0.2
2016-12-29T10:10:05.731Z,0.19
2016-12-29T10:11:05.724Z,0.35
2016-12-29T10:12:05.714Z,0.6
2016-12-29T10:13:06.086Z,1.21
2016-12-29T10:14:05.680Z,1.04
2016-12-29T10:15:05.655Z,0.67
2016-12-29T10:16:05.637Z,0.8
2016-12-29T10:17:05.615Z,1.02
2016-12-29T10:18:05.608Z,0.99
2016-12-29T10:19:05.595Z,0.45
2016-12-29T10:20:05.574Z,0.77
2016-12-29T10:21:05.564Z,1.21
2016-12-29T10:22:05.573Z,1.49
2016-12-29T10:23:05.524Z,1.63
2016-12-29T10:24:05.516Z,2.08
2016-12-29T10:25:05.493Z,2.01
2016-12-29T10:26:05.486Z,2.14
2016-12-29T10:27:05.471Z,2.01
2016-12-29T10:28:05.463Z,2.2
2016-12-29T10:29:05.452Z,2.45
2016-12-29T10:30:05.802Z,2.12
2016-12-29T10:31:05.410Z,2.58
2016-12-29T10:32:05.398Z,2.79
2016-12-29T10:33:05.382Z,2.5
2016-12-29T10:34:05.370Z,2.87
2016-12-29T10:35:05.349Z,2.94
2016-12-29T10:36:05.342Z,3.26
2016-12-29T10:37:05.322Z,3.28
2016-12-29T10:38:05.294Z,3.02
2016-12-29T10:39:05.287Z,3.15
2016-12-29T10:40:05.274Z,3.23
2016-12-29T10:41:05.258Z,3.22
2016-12-29T10:42:05.252Z,3.17
2016-12-29T10:43:05.235Z,3.02
2016-12-29T10:44:05.218Z,2.98
2016-12-29T10:45:05.196Z,2.9
2016-12-29T10:46:05.190Z,2.37
2016-12-29T10:47:05.171Z,1.64
2016-12-29T10:48:05.162Z,1.65
2016-12-29T10:49:05.143Z,1.93
2016-12-29T10:50:05.123Z,2.02
2016-12-29T10:51:05.318Z,1.86
2016-12-29T10:52:05.110Z,1.92
2016-12-29T10:53:05.076Z,2.29
2016-12-29T10:54:05.075Z,2.26
2016-12-29T10:55:05.063Z,2.09
2016-12-29T10:56:05.067Z,2.01
2016-12-29T10:57:05.015Z,1.72
2016-12-29T10:58:05.012Z,1.79
2016-12-29T10:59:04.992Z,1.7
2016-12-29T11:00:04.985Z,1.81
2016-12-29T11:01:04.973Z,1.89
2016-12-29T11:02:04.956Z,1.68
2016-12-29T11:03:04.936Z,1.74
2016-12-29T11:04:04.921Z,2.09
2016-12-29T11:05:04.906Z,1.93
2016-12-29T11:06:04.894Z,2.01
2016-12-29T11:07:04.871Z,2.29
2016-12-29T11:08:04.864Z,2.02
2016-12-29T11:09:04.836Z,2.32
2016-12-29T11:10:04.828Z,2.22
2016-12-29T11:11:04.804Z,2.45
2016-12-29T11:12:04.804Z,2.61
2016-12-29T11:13:04.791Z,3.16
2016-12-29T11:14:04.769Z,3.25
2016-12-29T11:15:04.753Z,2.48
2016-12-29T11:16:04.738Z,1.89
2016-12-29T11:17:04.722Z,1.24
2016-12-29T11:18:04.704Z,1.5
2016-12-29T11:19:04.701Z,1.93
2016-12-29T11:20:04.680Z,2.51
2016-12-29T11:21:04.671Z,2.51
2016-12-29T11:22:04.656Z,2.68
2016-12-29T11:23:04.634Z,2.09
2016-12-29T11:24:04.620Z,2.08
2016-12-29T11:25:04.603Z,1.85
2016-12-29T11:26:04.587Z,2.09
2016-12-29T11:27:04.578Z,2.37
2016-12-29T11:28:04.551Z,2.73
2016-12-29T11:29:04.541Z,2.99
2016-12-29T11:30:04.530Z,3.33
2016-12-29T11:31:04.520Z,3.42
2016-12-29T11:32:04.496Z,3.84
2016-12-29T11:33:04.475Z,3.68
2016-12-29T11:34:04.471Z,2.81
2016-12-29T11:35:04.466Z,2.27
2016-12-29T11:36:04.438Z,2.11
2016-12-29T11:37:04.430Z,1.98
2016-12-29T11:38:04.426Z,1.56
2016-12-29T11:39:04.398Z,2.04
2016-12-29T11:40:04.389Z,2.5
2016-12-29T11:41:04.362Z,2.86
2016-12-29T11:42:04.359Z,3.45
2016-12-29T11:43:04.351Z,3.31
2016-12-29T11:44:04.331Z,3.23
2016-12-29T11:45:04.320Z,3.16
2016-12-29T11:46:04.312Z,3.53
2016-12-29T11:47:04.283Z,3.68
2016-12-29T11:48:04.278Z,3.67
2016-12-29T11:49:04.249Z,3.84
2016-12-29T11:50:04.273Z,3.44
2016-12-29T11:51:04.230Z,3.67
2016-12-29T11:52:04.221Z,3.63
2016-12-29T11:53:04.208Z,3.64
2016-12-29T11:54:04.196Z,3.37
2016-12-29T11:55:04.197Z,3.02
2016-12-29T11:56:04.172Z,1.83
2016-12-29T11:57:04.152Z,1.7
2016-12-29T11:58:04.137Z,1.75
2016-12-29T11:59:04.114Z,1.7
2016-12-29T12:00:04.105Z,2.32
2016-12-29T12:01:04.098Z,2.79
2016-12-29T12:02:04.079Z,3.07
2016-12-29T12:03:04.068Z,3.01
2016-12-29T12:04:04.044Z,2.8
2016-12-29T12:05:04.042Z,1.47
2016-12-29T12:06:04.031Z,1.47
2016-12-29T12:07:04.024Z,1.81
2016-12-29T12:08:03.993Z,1.57
2016-12-29T12:09:03.979Z,1.36
2016-12-29T12:10:03.972Z,1.61
2016-12-29T12:11:03.957Z,1.86
2016-12-29T12:12:03.939Z,2.15
2016-12-29T12:13:03.931Z,2.3
2016-12-29T12:14:03.904Z,2.71
2016-12-29T12:15:03.893Z,2.98
2016-12-29T12:16:03.881Z,2.81
2016-12-29T12:17:03.863Z,1.88
2016-12-29T12:18:03.849Z,1.65
2016-12-29T12:19:03.837Z,1.71
2016-12-29T12:20:03.819Z,1.67
2016-12-29T12:21:03.805Z,2.29
2016-12-29T12:22:03.793Z,2.84
2016-12-29T12:23:03.779Z,2.76
2016-12-29T12:24:03.786Z,2.26
2016-12-29T12:25:03.754Z,2.09
2016-12-29T12:26:03.735Z,2.01
2016-12-29T12:27:03.726Z,2
2016-12-29T12:28:03.707Z,2.19
2016-12-29T12:29:03.685Z,2.2
2016-12-29T12:30:03.677Z,2.77
2016-12-29T12:31:03.656Z,2.59
2016-12-29T12:32:03.632Z,2.9
2016-12-29T12:33:03.628Z,3.15
2016-12-29T12:34:03.611Z,2.86
2016-12-29T12:35:03.599Z,2.84
2016-12-29T12:36:03.577Z,2.79
2016-12-29T12:37:03.565Z,2.66
2016-12-29T12:38:03.553Z,2.43
2016-12-29T12:39:03.543Z,2.26
2016-12-29T12:40:03.559Z,2.15
2016-12-29T12:41:03.515Z,2.4
2016-12-29T12:42:03.491Z,2.73
2016-12-29T12:43:03.480Z,2.98
2016-12-29T12:44:03.461Z,2.65
2016-12-29T12:45:03.837Z,2.65
2016-12-29T12:46:03.441Z,2.8
2016-12-29T12:47:03.414Z,2.81
2016-12-29T12:48:03.409Z,2.51
2016-12-29T12:49:03.387Z,2.62
2016-12-29T12:50:03.382Z,2.51
2016-12-29T12:51:03.370Z,2.33
2016-12-29T12:52:03.351Z,2.55
2016-12-29T12:53:03.365Z,2.71
2016-12-29T12:54:03.321Z,2.5
2016-12-29T12:55:03.313Z,2.27
2016-12-29T12:56:03.298Z,2.33
2016-12-29T12:57:03.283Z,2.53
2016-12-29T12:58:03.261Z,2.66
2016-12-29T12:59:03.237Z,2.81
2016-12-29T13:00:03.223Z,2.71
2016-12-29T13:01:03.218Z,2.8
2016-12-29T13:02:03.192Z,2.89